createdAt,value
2023-03-20T00:01:26.538Z,84.67
2023-03-20T00:03:53.683Z,82.70
2023-03-20T00:06:24.331Z,82.70
2023-03-20T00:08:54.031Z,83.80
2023-03-20T00:11:36.457Z,81.50
2023-03-20T00:14:10.778Z,82.60
2023-03-20T00:16:47.290Z,83.97
2023-03-20T00:19:31.610Z,82.90
2023-03-20T00:21:58.595Z,81.70
2023-03-20T00:24:26.699Z,83.97
2023-03-20T00:26:54.250Z,83.57
2023-03-20T00:29:31.158Z,82.97
2023-03-20T00:31:59.301Z,81.87
2023-03-20T00:34:32.611Z,82.53
2023-03-20T00:37:00.190Z,80.20
2023-03-20T00:39:29.946Z,79.73
2023-03-20T00:42:08.272Z,81.23
2023-03-20T00:44:55.719Z,81.17
2023-03-20T00:47:25.581Z,81.33
2023-03-20T00:49:54.640Z,79.13
2023-03-20T00:52:23.145Z,79.73
2023-03-20T00:54:52.136Z,79.03
2023-03-20T00:57:27.125Z,80.40
2023-03-20T01:00:01.387Z,80.77
2023-03-20T01:02:30.020Z,78.93
2023-03-20T01:04:58.218Z,82.67
2023-03-20T01:07:26.588Z,79.60
2023-03-20T01:09:53.583Z,80.20
2023-03-20T01:12:20.590Z,79.10
2023-03-20T01:14:54.674Z,78.47
2023-03-20T01:17:23.707Z,77.80
2023-03-20T01:19:51.038Z,76.73
2023-03-20T01:22:18.267Z,78.43
2023-03-20T01:24:45.707Z,78.73
2023-03-20T01:27:16.559Z,78.10
2023-03-20T01:29:44.105Z,79.87
2023-03-20T01:32:16.714Z,80.10
2023-03-20T01:34:47.822Z,79.13
2023-03-20T01:37:26.683Z,79.00
2023-03-20T01:39:56.564Z,79.33
2023-03-20T01:42:24.155Z,79.83
2023-03-20T01:44:51.740Z,79.13
2023-03-20T01:47:23.601Z,79.33
2023-03-20T01:50:22.577Z,78.23
2023-03-20T01:52:59.615Z,76.77
2023-03-20T01:55:27.506Z,77.53
2023-03-20T01:58:05.374Z,76.80
2023-03-20T02:00:34.769Z,77.53
2023-03-20T02:03:02.136Z,75.33
2023-03-20T02:05:59.875Z,77.23
2023-03-20T02:08:49.320Z,76.30
2023-03-20T02:11:22.537Z,75.77
2023-03-20T02:13:55.847Z,74.63
2023-03-20T02:16:24.410Z,74.67
2023-03-20T02:19:23.993Z,73.37
2023-03-20T02:22:07.900Z,73.20
2023-03-20T02:25:02.209Z,73.47
2023-03-20T02:27:44.435Z,73.43
2023-03-20T02:31:01.890Z,72.90
2023-03-20T02:34:38.649Z,74.87
2023-03-20T02:37:42.170Z,73.23
2023-03-20T02:40:50.957Z,73.33
2023-03-20T02:43:48.206Z,73.77
2023-03-20T02:46:47.876Z,73.00
2023-03-20T02:50:05.763Z,73.13
2023-03-20T02:52:47.593Z,74.77
2023-03-20T02:55:40.235Z,74.23
2023-03-20T02:58:19.106Z,73.83
2023-03-20T03:01:11.940Z,74.03
2023-03-20T03:03:55.963Z,73.20
2023-03-20T03:06:31.568Z,72.93
2023-03-20T03:09:46.166Z,73.10
2023-03-20T03:12:19.606Z,73.10
2023-03-20T03:14:52.663Z,73.37
2023-03-20T03:17:23.897Z,73.03
2023-03-20T03:19:57.619Z,75.10
2023-03-20T03:22:26.109Z,73.80
2023-03-20T03:24:55.309Z,72.43
2023-03-20T03:27:28.141Z,75.13
2023-03-20T03:30:20.477Z,73.20
2023-03-20T03:33:20.610Z,74.37
2023-03-20T03:35:51.813Z,73.47
2023-03-20T03:38:35.226Z,73.70
2023-03-20T03:41:27.871Z,74.03
2023-03-20T03:44:13.685Z,74.03
2023-03-20T03:47:07.041Z,74.43
2023-03-20T03:49:40.876Z,73.13
2023-03-20T03:52:14.707Z,73.27
2023-03-20T03:54:48.132Z,74.63
2023-03-20T03:57:37.975Z,73.73
2023-03-20T04:00:12.008Z,75.80
2023-03-20T04:02:48.107Z,74.47
2023-03-20T04:05:17.075Z,74.67
2023-03-20T04:07:48.830Z,73.10
2023-03-20T04:10:17.676Z,73.67
2023-03-20T04:12:45.665Z,74.53
2023-03-20T04:15:14.638Z,74.53
2023-03-20T04:17:42.508Z,74.43
2023-03-20T04:20:12.456Z,73.83
2023-03-20T04:22:40.613Z,74.10
2023-03-20T04:25:17.344Z,73.77
2023-03-20T04:27:44.272Z,72.70
2023-03-20T04:30:19.358Z,73.73
2023-03-20T04:33:21.688Z,73.43
2023-03-20T04:36:23.846Z,71.97
2023-03-20T04:38:54.116Z,73.60
2023-03-20T04:41:22.385Z,74.60
2023-03-20T04:43:53.506Z,71.97
2023-03-20T04:46:20.512Z,75.23
2023-03-20T04:48:47.766Z,75.17
2023-03-20T04:51:15.982Z,73.60
2023-03-20T04:53:50.292Z,74.07
2023-03-20T04:56:17.819Z,71.97
2023-03-20T04:58:45.891Z,73.37
2023-03-20T05:01:14.140Z,74.30
2023-03-20T05:03:41.446Z,74.60
2023-03-20T05:06:09.400Z,73.10
2023-03-20T05:08:40.159Z,74.67
2023-03-20T05:11:08.217Z,73.73
2023-03-20T05:13:56.155Z,75.23
2023-03-20T05:16:41.536Z,74.67
2023-03-20T05:19:40.890Z,75.07
2023-03-20T05:22:07.801Z,73.60
2023-03-20T05:24:49.939Z,75.43
2023-03-20T05:27:37.254Z,73.90
2023-03-20T05:30:22.879Z,73.23
2023-03-20T05:33:08.438Z,73.80
2023-03-20T05:35:54.045Z,74.33
2023-03-20T05:38:56.179Z,73.13
2023-03-20T05:41:25.868Z,76.50
2023-03-20T05:44:24.794Z,75.00
2023-03-20T05:47:05.462Z,78.60
2023-03-20T05:49:53.151Z,77.07
2023-03-20T05:52:26.680Z,77.00
2023-03-20T05:55:12.284Z,78.73
2023-03-20T05:57:57.910Z,78.87
2023-03-20T06:00:41.261Z,77.47
2023-03-20T06:03:47.590Z,76.40
2023-03-20T06:06:20.511Z,74.77
2023-03-20T06:08:51.182Z,74.27
2023-03-20T06:11:18.513Z,74.17
2023-03-20T06:13:45.732Z,73.13
2023-03-20T06:16:13.033Z,71.70
2023-03-20T06:18:40.164Z,71.50
2023-03-20T06:21:09.429Z,73.47
2023-03-20T06:23:36.916Z,73.83
2023-03-20T06:26:05.198Z,73.80
2023-03-20T06:28:43.603Z,73.77
2023-03-20T06:31:10.569Z,72.17
2023-03-20T06:33:38.121Z,73.93
2023-03-20T06:36:05.572Z,73.30
2023-03-20T06:38:33.102Z,73.63
2023-03-20T06:41:06.981Z,74.23
2023-03-20T06:43:34.728Z,78.70
2023-03-20T06:46:01.768Z,75.13
2023-03-20T06:48:31.284Z,74.83
2023-03-20T06:50:58.347Z,76.93
2023-03-20T06:53:31.995Z,74.47
2023-03-20T06:56:08.266Z,72.03
2023-03-20T06:58:35.300Z,71.70
2023-03-20T07:01:03.166Z,70.60
2023-03-20T07:03:30.189Z,71.23
2023-03-20T07:05:58.254Z,71.17
2023-03-20T07:08:25.466Z,72.53
2023-03-20T07:10:52.417Z,72.63
2023-03-20T07:13:20.681Z,71.47
2023-03-20T07:16:03.120Z,73.13
2023-03-20T07:18:35.506Z,72.17
2023-03-20T07:21:05.383Z,74.07
2023-03-20T07:23:34.570Z,74.33
2023-03-20T07:26:03.599Z,73.67
2023-03-20T07:28:31.027Z,74.87
2023-03-20T07:31:23.937Z,74.07
2023-03-20T07:33:58.158Z,74.83
2023-03-20T07:36:25.789Z,75.77
2023-03-20T07:38:52.799Z,77.33
2023-03-20T07:41:19.824Z,75.93
2023-03-20T07:43:57.340Z,102.30
2023-03-20T07:46:35.072Z,113.27
2023-03-20T07:49:02.443Z,102.00
2023-03-20T07:51:29.418Z,83.60
2023-03-20T07:53:56.934Z,85.30
2023-03-20T07:56:23.938Z,83.10
2023-03-20T07:58:51.020Z,83.27
2023-03-20T08:01:18.076Z,83.73
2023-03-20T08:03:45.078Z,81.53
2023-03-20T08:06:12.025Z,78.87
2023-03-20T08:08:39.214Z,80.23
2023-03-20T08:11:06.594Z,81.65
2023-03-20T08:13:33.606Z,78.73
2023-03-20T08:16:00.927Z,79.33
2023-03-20T08:18:28.176Z,79.23
2023-03-20T08:20:55.385Z,83.40
2023-03-20T08:23:22.389Z,85.63
2023-03-20T08:25:51.101Z,81.93
2023-03-20T08:28:18.672Z,78.27
2023-03-20T08:30:46.051Z,77.90
2023-03-20T08:33:14.595Z,76.83
2023-03-20T08:35:42.077Z,77.43
2023-03-20T08:38:13.490Z,75.77
2023-03-20T08:40:43.605Z,74.37
2023-03-20T08:43:10.607Z,75.47
2023-03-20T08:45:38.032Z,75.93
2023-03-20T08:48:05.281Z,79.33
2023-03-20T08:50:32.341Z,76.30
2023-03-20T08:52:59.276Z,73.13
2023-03-20T08:55:26.619Z,74.03
2023-03-20T08:57:54.542Z,77.43
2023-03-20T09:00:25.717Z,74.47
2023-03-20T09:02:52.682Z,74.10
2023-03-20T09:05:19.647Z,77.20
2023-03-20T09:07:46.701Z,74.45
2023-03-20T09:10:13.812Z,76.32
2023-03-20T09:12:40.883Z,77.30
2023-03-20T09:15:08.635Z,79.65
2023-03-20T09:17:35.904Z,74.28
2023-03-20T09:20:04.041Z,71.40
2023-03-20T09:22:31.375Z,72.15
2023-03-20T09:24:58.289Z,92.00
2023-03-20T09:27:25.281Z,59.75
2023-03-20T09:29:52.224Z,64.38
2023-03-20T09:32:19.322Z,61.53
2023-03-20T09:34:46.628Z,62.25
2023-03-20T09:37:13.619Z,66.20
2023-03-20T09:39:40.721Z,71.95
2023-03-20T09:42:31.752Z,70.65
2023-03-20T09:45:11.537Z,70.15
2023-03-20T09:48:07.455Z,70.38
2023-03-20T09:50:46.389Z,54.63
2023-03-20T09:53:26.807Z,38.95
2023-03-20T09:55:56.003Z,63.63
2023-03-20T09:58:30.350Z,69.43
2023-03-20T10:01:00.530Z,67.68
2023-03-20T10:03:43.187Z,65.32
2023-03-20T10:06:16.711Z,66.05
2023-03-20T10:08:45.650Z,67.20
2023-03-20T10:11:31.153Z,68.05
2023-03-20T10:14:29.236Z,68.22
2023-03-20T10:17:26.372Z,69.28
2023-03-20T10:20:26.466Z,72.45
2023-03-20T10:23:07.702Z,71.20
2023-03-20T10:25:42.123Z,71.20
2023-03-20T10:28:17.905Z,73.32
2023-03-20T10:31:26.392Z,75.03
2023-03-20T10:34:02.611Z,74.90
2023-03-20T10:36:41.442Z,78.43
2023-03-20T10:39:56.294Z,75.80
2023-03-20T10:42:39.742Z,76.95
2023-03-20T10:45:34.231Z,78.18
2023-03-20T10:48:10.036Z,78.28
2023-03-20T10:50:45.542Z,79.68
2023-03-20T10:53:29.404Z,80.22
2023-03-20T10:56:02.351Z,79.07
2023-03-20T10:58:37.467Z,80.30
2023-03-20T11:01:05.152Z,80.90
2023-03-20T11:03:34.211Z,83.07
2023-03-20T11:06:10.088Z,80.47
2023-03-20T11:08:43.317Z,80.07
2023-03-20T11:11:10.728Z,76.07
2023-03-20T11:13:43.934Z,77.15
2023-03-20T11:16:19.508Z,79.75
2023-03-20T11:18:49.406Z,79.15
2023-03-20T11:21:31.598Z,77.95
2023-03-20T11:23:58.692Z,77.15
2023-03-20T11:26:38.065Z,80.07
2023-03-20T11:29:24.603Z,77.97
2023-03-20T11:31:52.005Z,78.55
2023-03-20T11:34:18.949Z,75.47
2023-03-20T11:37:09.683Z,76.75
2023-03-20T11:39:39.963Z,77.22
2023-03-20T11:42:24.792Z,75.25
2023-03-20T11:44:59.509Z,78.88
2023-03-20T11:47:29.000Z,79.40
2023-03-20T11:49:59.793Z,80.38
2023-03-20T11:52:35.620Z,78.55
2023-03-20T11:55:08.164Z,79.68
2023-03-20T11:57:40.438Z,79.88
2023-03-20T12:00:20.839Z,81.20
2023-03-20T12:02:48.145Z,79.90
2023-03-20T12:05:33.750Z,77.72
2023-03-20T12:08:13.093Z,79.85
2023-03-20T12:10:44.676Z,80.47
2023-03-20T12:13:25.056Z,79.82
2023-03-20T12:15:59.944Z,79.55
2023-03-20T12:18:43.549Z,78.80
2023-03-20T12:21:43.610Z,79.07
2023-03-20T12:24:38.144Z,77.32
2023-03-20T12:27:22.988Z,75.30
2023-03-20T12:30:00.696Z,75.40
2023-03-20T12:33:40.214Z,75.47
2023-03-20T12:36:16.509Z,76.85
2023-03-20T12:38:44.306Z,76.13
2023-03-20T12:41:30.548Z,74.10
2023-03-20T12:44:40.603Z,75.22
2023-03-20T12:47:29.764Z,73.50
2023-03-20T12:50:02.433Z,73.75
2023-03-20T12:52:57.392Z,71.95
2023-03-20T12:55:35.518Z,73.50
2023-03-20T12:58:05.389Z,71.72
2023-03-20T13:00:45.903Z,69.97
2023-03-20T13:04:00.283Z,71.00
2023-03-20T13:06:54.952Z,71.60
2023-03-20T13:09:52.194Z,71.90
2023-03-20T13:12:43.074Z,71.97
2023-03-20T13:16:00.627Z,74.15
2023-03-20T13:18:43.146Z,73.10
2023-03-20T13:21:55.365Z,74.78
2023-03-20T13:24:51.059Z,76.80
2023-03-20T13:27:42.918Z,77.68
2023-03-20T13:30:33.374Z,78.60
2023-03-20T13:33:30.166Z,78.28
2023-03-20T13:36:25.388Z,79.65
2023-03-20T13:39:05.977Z,79.55
2023-03-20T13:41:34.950Z,82.90
2023-03-20T13:44:04.867Z,80.78
2023-03-20T13:46:52.067Z,84.22
2023-03-20T13:49:31.156Z,81.80
2023-03-20T13:52:17.025Z,81.20
2023-03-20T13:55:16.239Z,77.60
2023-03-20T13:58:04.521Z,77.30
2023-03-20T14:00:39.643Z,76.45
2023-03-20T14:03:34.804Z,75.97
2023-03-20T14:06:16.361Z,75.30
2023-03-20T14:09:03.818Z,78.35
2023-03-20T14:11:37.008Z,74.18
2023-03-20T14:14:18.232Z,75.55
2023-03-20T14:16:45.932Z,74.60
2023-03-20T14:19:21.684Z,75.47
2023-03-20T14:21:54.403Z,74.10
2023-03-20T14:24:24.147Z,74.15
2023-03-20T14:26:57.257Z,73.55
2023-03-20T14:29:30.282Z,74.43
2023-03-20T14:32:17.105Z,90.65
2023-03-20T14:35:00.373Z,76.32
2023-03-20T14:37:33.387Z,75.13
2023-03-20T14:40:15.407Z,75.05
2023-03-20T14:43:12.854Z,78.43
2023-03-20T14:45:52.575Z,76.28
2023-03-20T14:48:35.892Z,77.68
2023-03-20T14:51:45.950Z,75.60
2023-03-20T14:54:23.716Z,77.35
2023-03-20T14:56:52.298Z,74.65
2023-03-20T14:59:24.164Z,75.22
2023-03-20T15:01:58.345Z,75.43
2023-03-20T15:04:42.174Z,73.00
2023-03-20T15:07:16.075Z,75.53
2023-03-20T15:09:50.309Z,74.15
2023-03-20T15:12:23.492Z,74.47
2023-03-20T15:15:02.089Z,72.00
2023-03-20T15:17:38.355Z,72.38
2023-03-20T15:20:37.823Z,73.32
2023-03-20T15:23:06.198Z,71.90
2023-03-20T15:25:38.765Z,70.18
2023-03-20T15:28:08.000Z,68.03
2023-03-20T15:30:39.071Z,71.22
2023-03-20T15:33:10.502Z,69.82
2023-03-20T15:35:38.974Z,94.20
2023-03-20T15:38:07.835Z,15.50
2023-03-20T15:40:50.456Z,110.68
2023-03-20T15:43:26.460Z,283.73
2023-03-20T15:46:16.317Z,237.98
2023-03-20T15:48:50.374Z,611.05
2023-03-20T15:51:19.341Z,515.83
2023-03-20T15:53:48.575Z,320.58
2023-03-20T15:56:19.911Z,231.60
2023-03-20T15:58:52.432Z,404.77
2023-03-20T16:01:23.147Z,95.10
2023-03-20T16:03:51.986Z,192.48
2023-03-20T16:06:22.184Z,256.80
2023-03-20T16:09:07.033Z,284.92
2023-03-20T16:11:41.682Z,267.35
2023-03-20T16:14:24.802Z,67.90
2023-03-20T16:16:54.750Z,300.67
2023-03-20T16:19:22.178Z,66.77
2023-03-20T16:21:59.820Z,67.67
2023-03-20T16:24:35.916Z,71.63
2023-03-20T16:27:08.576Z,67.63
2023-03-20T16:29:37.517Z,70.97
2023-03-20T16:32:31.114Z,273.05
2023-03-20T16:35:01.390Z,257.50
2023-03-20T16:37:32.449Z,265.95
2023-03-20T16:40:33.101Z,337.85
2023-03-20T16:43:17.094Z,296.92
2023-03-20T16:45:54.969Z,331.98
2023-03-20T16:48:33.288Z,323.90
2023-03-20T16:51:16.570Z,77.23
2023-03-20T16:53:49.922Z,83.10
2023-03-20T16:56:29.697Z,80.77
2023-03-20T16:58:57.251Z,316.85
2023-03-20T17:01:28.045Z,277.95
2023-03-20T17:03:58.661Z,304.38
2023-03-20T17:06:35.566Z,316.90
2023-03-20T17:09:27.174Z,303.05
2023-03-20T17:12:14.573Z,322.33
2023-03-20T17:14:41.716Z,238.10
2023-03-20T17:17:21.324Z,284.50
2023-03-20T17:19:53.128Z,313.50
2023-03-20T17:22:26.045Z,265.88
2023-03-20T17:24:53.088Z,84.00
2023-03-20T17:27:21.071Z,78.90
2023-03-20T17:29:52.079Z,135.73
2023-03-20T17:32:23.845Z,75.05
2023-03-20T17:34:51.282Z,136.77
2023-03-20T17:37:29.808Z,134.40
2023-03-20T17:39:57.736Z,99.35
2023-03-20T17:42:31.366Z,73.15
2023-03-20T17:45:00.545Z,110.63
2023-03-20T17:47:29.435Z,75.13
2023-03-20T17:49:56.414Z,73.10
2023-03-20T17:52:28.740Z,72.40
2023-03-20T17:54:56.216Z,72.10
2023-03-20T17:57:34.262Z,72.20
2023-03-20T18:00:02.379Z,71.70
2023-03-20T18:02:31.292Z,98.23
2023-03-20T18:04:58.214Z,71.53
2023-03-20T18:07:25.327Z,81.33
2023-03-20T18:09:52.289Z,89.10
2023-03-20T18:12:21.037Z,94.53
2023-03-20T18:14:48.025Z,90.10
2023-03-20T18:17:15.933Z,75.73
2023-03-20T18:19:43.955Z,82.00
2023-03-20T18:22:11.713Z,88.77
2023-03-20T18:24:44.034Z,80.23
2023-03-20T18:27:12.323Z,87.20
2023-03-20T18:29:39.374Z,115.47
2023-03-20T18:32:06.333Z,87.77
2023-03-20T18:34:33.314Z,90.70
2023-03-20T18:37:00.389Z,92.40
2023-03-20T18:39:27.567Z,82.40
2023-03-20T18:41:54.824Z,81.30
2023-03-20T18:44:22.411Z,82.93
2023-03-20T18:46:49.417Z,94.33
2023-03-20T18:49:19.683Z,84.63
2023-03-20T18:51:46.834Z,85.67
2023-03-20T18:54:13.868Z,80.07
2023-03-20T18:56:41.084Z,140.50
2023-03-20T18:59:10.522Z,79.80
2023-03-20T19:01:37.546Z,112.87
2023-03-20T19:04:04.735Z,78.53
2023-03-20T19:06:32.375Z,82.60
2023-03-20T19:09:06.028Z,75.03
2023-03-20T19:11:33.058Z,70.27
2023-03-20T19:14:00.040Z,69.97
2023-03-20T19:16:34.959Z,96.97
2023-03-20T19:19:05.471Z,70.03
2023-03-20T19:21:34.149Z,197.80
2023-03-20T19:24:06.341Z,73.37
2023-03-20T19:26:36.612Z,77.53
2023-03-20T19:29:10.511Z,78.17
2023-03-20T19:31:37.692Z,79.77
2023-03-20T19:34:05.466Z,95.60
2023-03-20T19:36:36.873Z,73.70
2023-03-20T19:39:07.827Z,72.23
2023-03-20T19:41:34.891Z,73.80
2023-03-20T19:44:01.865Z,74.37
2023-03-20T19:46:39.607Z,61.57
2023-03-20T19:49:30.229Z,64.68
2023-03-20T19:51:57.812Z,103.77
2023-03-20T19:54:24.844Z,145.20
2023-03-20T19:56:51.821Z,78.38
2023-03-20T19:59:18.763Z,82.80
2023-03-20T20:01:46.177Z,168.47
2023-03-20T20:04:13.757Z,82.00
2023-03-20T20:06:41.834Z,84.10
2023-03-20T20:09:09.207Z,85.70
2023-03-20T20:11:36.164Z,124.93
2023-03-20T20:14:07.626Z,77.17
2023-03-20T20:16:37.028Z,75.50
2023-03-20T20:19:04.429Z,99.67
2023-03-20T20:24:18.973Z,91.97
2023-03-20T20:27:11.560Z,114.33
2023-03-20T20:29:41.535Z,80.03
2023-03-20T20:32:08.620Z,79.40
2023-03-20T20:40:14.765Z,77.47
2023-03-20T20:42:43.201Z,74.97
2023-03-20T20:45:14.663Z,99.90
2023-03-20T20:47:45.907Z,73.93
2023-03-20T20:50:17.955Z,69.57
2023-03-20T20:52:45.504Z,70.10
2023-03-20T20:55:23.171Z,70.30
2023-03-20T20:57:55.755Z,69.03
2023-03-20T21:00:37.207Z,67.60
2023-03-20T21:03:12.222Z,67.13
2023-03-20T21:05:42.853Z,67.53
2023-03-20T21:08:12.027Z,67.50
2023-03-20T21:10:39.850Z,65.37
2023-03-20T21:13:08.294Z,66.53
2023-03-20T21:15:35.743Z,65.40
2023-03-20T21:18:03.102Z,63.80
2023-03-20T21:20:31.964Z,60.60
2023-03-20T21:22:59.503Z,60.10
2023-03-20T21:25:39.119Z,64.25
2023-03-20T21:28:07.761Z,65.70
2023-03-20T21:30:34.765Z,74.27
2023-03-20T21:33:03.109Z,73.47
2023-03-20T21:35:30.470Z,68.67
2023-03-20T21:38:47.487Z,67.63
2023-03-20T21:40:45.015Z,73.27
2023-03-20T21:43:13.241Z,59.03
2023-03-20T21:49:12.761Z,55.10
2023-03-20T22:00:19.137Z,65.13
2023-03-20T22:02:29.048Z,68.13
2023-03-20T22:05:41.868Z,61.50
2023-03-20T22:08:48.651Z,72.80
2023-03-20T22:20:44.916Z,63.40
2023-03-20T22:22:55.270Z,73.17
2023-03-20T22:46:54.520Z,66.17
2023-03-20T22:49:21.489Z,67.17
2023-03-20T22:52:07.720Z,72.07
2023-03-20T22:54:35.974Z,153.10
2023-03-20T22:57:03.144Z,71.23
2023-03-20T22:59:30.300Z,67.57
2023-03-20T23:01:57.303Z,64.80
2023-03-20T23:04:24.350Z,68.27
2023-03-20T23:06:51.292Z,67.57
2023-03-20T23:09:18.375Z,69.20
2023-03-20T23:11:45.615Z,75.20
2023-03-20T23:14:21.293Z,79.97
2023-03-20T23:16:49.938Z,79.77
2023-03-20T23:19:17.031Z,75.50
2023-03-20T23:21:44.010Z,71.97
2023-03-20T23:24:11.286Z,72.20
2023-03-20T23:26:38.287Z,71.20
2023-03-20T23:29:05.786Z,68.70
2023-03-20T23:31:32.843Z,66.33
2023-03-20T23:33:59.946Z,65.23
2023-03-20T23:36:42.878Z,79.77
2023-03-20T23:39:12.048Z,77.63
2023-03-20T23:42:08.391Z,65.43
2023-03-20T23:44:26.405Z,62.60
2023-03-20T23:46:54.662Z,62.77
2023-03-20T23:49:22.224Z,66.80
2023-03-20T23:51:49.264Z,64.80
2023-03-20T23:54:16.218Z,63.60
2023-03-20T23:56:43.223Z,66.00
2023-03-20T23:59:25.498Z,64.50
